sensor_id;sensor_type;location;lat;lon;timestamp;temperature;humidity
40914;DHT22;26638;50.990;4.676;2024-02-21T00:02:06;10.20;99.90
40914;DHT22;26638;50.990;4.676;2024-02-21T00:04:32;10.30;99.90
40914;DHT22;26638;50.990;4.676;2024-02-21T00:06:58;10.20;99.90
40914;DHT22;26638;50.990;4.676;2024-02-21T00:09:24;10.10;99.90
40914;DHT22;26638;50.990;4.676;2024-02-21T00:11:50;10.20;99.90
40914;DHT22;26638;50.990;4.676;2024-02-21T00:14:15;10.30;99.90
40914;DHT22;26638;50.990;4.676;2024-02-21T00:16:41;10.30;99.90
40914;DHT22;26638;50.990;4.676;2024-02-21T00:19:07;10.30;99.90
40914;DHT22;26638;50.990;4.676;2024-02-21T00:21:33;10.30;99.90
40914;DHT22;26638;50.990;4.676;2024-02-21T00:23:59;10.30;99.90
40914;DHT22;26638;50.990;4.676;2024-02-21T00:26:24;10.10;99.90
40914;DHT22;26638;50.990;4.676;2024-02-21T00:28:51;10.20;99.90
40914;DHT22;26638;50.990;4.676;2024-02-21T00:31:17;10.10;99.90
40914;DHT22;26638;50.990;4.676;2024-02-21T00:33:42;10.20;99.90
40914;DHT22;26638;50.990;4.676;2024-02-21T00:36:08;10.20;99.90
40914;DHT22;26638;50.990;4.676;2024-02-21T00:38:34;10.30;99.90
40914;DHT22;26638;50.990;4.676;2024-02-21T00:40:59;10.30;99.90
40914;DHT22;26638;50.990;4.676;2024-02-21T00:43:25;10.30;99.90
40914;DHT22;26638;50.990;4.676;2024-02-21T00:45:51;10.30;99.90
40914;DHT22;26638;50.990;4.676;2024-02-21T00:48:16;10.10;99.90
40914;DHT22;26638;50.990;4.676;2024-02-21T00:50:42;10.10;99.90
40914;DHT22;26638;50.990;4.676;2024-02-21T00:53:08;10.10;99.90
40914;DHT22;26638;50.990;4.676;2024-02-21T00:55:35;10.20;99.90
40914;DHT22;26638;50.990;4.676;2024-02-21T00:58:01;10.30;99.90
40914;DHT22;26638;50.990;4.676;2024-02-21T01:00:27;10.20;99.90
40914;DHT22;26638;50.990;4.676;2024-02-21T01:02:52;10.20;99.90
40914;DHT22;26638;50.990;4.676;2024-02-21T01:05:18;10.30;99.90
40914;DHT22;26638;50.990;4.676;2024-02-21T01:07:44;10.20;99.90
40914;DHT22;26638;50.990;4.676;2024-02-21T01:10:10;10.20;99.90
40914;DHT22;26638;50.990;4.676;2024-02-21T01:12:36;10.20;99.90
40914;DHT22;26638;50.990;4.676;2024-02-21T01:15:02;10.10;99.90
40914;DHT22;26638;50.990;4.676;2024-02-21T01:17:28;10.10;99.90
40914;DHT22;26638;50.990;4.676;2024-02-21T01:19:53;10.20;99.90
40914;DHT22;26638;50.990;4.676;2024-02-21T01:22:19;10.30;99.90
40914;DHT22;26638;50.990;4.676;2024-02-21T01:24:45;10.30;99.90
40914;DHT22;26638;50.990;4.676;2024-02-21T01:27:10;10.40;99.90
40914;DHT22;26638;50.990;4.676;2024-02-21T01:29:36;10.40;99.90
40914;DHT22;26638;50.990;4.676;2024-02-21T01:32:02;10.20;99.90
40914;DHT22;26638;50.990;4.676;2024-02-21T01:34:27;10.20;99.90
40914;DHT22;26638;50.990;4.676;2024-02-21T01:36:53;10.30;99.90
40914;DHT22;26638;50.990;4.676;2024-02-21T01:39:19;10.30;99.90
40914;DHT22;26638;50.990;4.676;2024-02-21T01:41:45;10.40;99.90
40914;DHT22;26638;50.990;4.676;2024-02-21T01:44:10;10.20;99.90
40914;DHT22;26638;50.990;4.676;2024-02-21T01:46:36;10.20;99.90
40914;DHT22;26638;50.990;4.676;2024-02-21T01:49:02;10.10;99.90
40914;DHT22;26638;50.990;4.676;2024-02-21T01:51:28;10.00;99.90
40914;DHT22;26638;50.990;4.676;2024-02-21T01:53:55;9.90;99.90
40914;DHT22;26638;50.990;4.676;2024-02-21T01:56:22;9.80;99.90
40914;DHT22;26638;50.990;4.676;2024-02-21T01:58:48;9.80;99.90
40914;DHT22;26638;50.990;4.676;2024-02-21T02:01:14;9.90;99.90
40914;DHT22;26638;50.990;4.676;2024-02-21T02:03:40;9.90;99.90
40914;DHT22;26638;50.990;4.676;2024-02-21T02:06:05;10.00;99.90
40914;DHT22;26638;50.990;4.676;2024-02-21T02:08:32;9.90;99.90
40914;DHT22;26638;50.990;4.676;2024-02-21T02:10:57;10.00;99.90
40914;DHT22;26638;50.990;4.676;2024-02-21T02:13:23;9.90;99.90
40914;DHT22;26638;50.990;4.676;2024-02-21T02:15:49;9.90;99.90
40914;DHT22;26638;50.990;4.676;2024-02-21T02:18:16;10.00;99.90
40914;DHT22;26638;50.990;4.676;2024-02-21T02:20:43;10.10;99.90
40914;DHT22;26638;50.990;4.676;2024-02-21T02:23:11;10.10;99.90
40914;DHT22;26638;50.990;4.676;2024-02-21T02:25:38;10.00;99.90
40914;DHT22;26638;50.990;4.676;2024-02-21T02:28:05;9.90;99.90
40914;DHT22;26638;50.990;4.676;2024-02-21T02:30:36;10.00;99.90
40914;DHT22;26638;50.990;4.676;2024-02-21T02:33:04;9.90;99.90
40914;DHT22;26638;50.990;4.676;2024-02-21T02:35:30;10.00;99.90
40914;DHT22;26638;50.990;4.676;2024-02-21T02:37:56;10.00;99.90
40914;DHT22;26638;50.990;4.676;2024-02-21T02:40:22;10.00;99.90
40914;DHT22;26638;50.990;4.676;2024-02-21T02:42:48;9.80;99.90
40914;DHT22;26638;50.990;4.676;2024-02-21T02:45:18;9.90;99.90
40914;DHT22;26638;50.990;4.676;2024-02-21T02:47:47;9.80;99.90
40914;DHT22;26638;50.990;4.676;2024-02-21T02:50:13;9.80;99.90
40914;DHT22;26638;50.990;4.676;2024-02-21T02:52:39;9.80;99.90
40914;DHT22;26638;50.990;4.676;2024-02-21T02:55:06;9.90;99.90
40914;DHT22;26638;50.990;4.676;2024-02-21T02:57:32;9.90;99.90
40914;DHT22;26638;50.990;4.676;2024-02-21T02:59:58;9.90;99.90
40914;DHT22;26638;50.990;4.676;2024-02-21T03:02:23;9.80;99.90
40914;DHT22;26638;50.990;4.676;2024-02-21T03:04:49;9.70;99.90
40914;DHT22;26638;50.990;4.676;2024-02-21T03:07:15;9.80;99.90
40914;DHT22;26638;50.990;4.676;2024-02-21T03:09:41;9.80;99.90
40914;DHT22;26638;50.990;4.676;2024-02-21T03:12:10;9.80;99.90
40914;DHT22;26638;50.990;4.676;2024-02-21T03:14:36;9.80;99.90
40914;DHT22;26638;50.990;4.676;2024-02-21T03:17:03;9.90;99.90
40914;DHT22;26638;50.990;4.676;2024-02-21T03:19:29;9.90;99.90
40914;DHT22;26638;50.990;4.676;2024-02-21T03:21:55;9.80;99.90
40914;DHT22;26638;50.990;4.676;2024-02-21T03:24:21;9.80;99.90
40914;DHT22;26638;50.990;4.676;2024-02-21T03:26:47;9.80;99.90
40914;DHT22;26638;50.990;4.676;2024-02-21T03:29:14;9.70;99.90
40914;DHT22;26638;50.990;4.676;2024-02-21T03:31:40;9.80;99.90
40914;DHT22;26638;50.990;4.676;2024-02-21T03:34:06;9.80;99.90
40914;DHT22;26638;50.990;4.676;2024-02-21T03:36:32;9.90;99.90
40914;DHT22;26638;50.990;4.676;2024-02-21T03:38:57;9.90;99.90
40914;DHT22;26638;50.990;4.676;2024-02-21T03:41:23;9.90;99.90
40914;DHT22;26638;50.990;4.676;2024-02-21T03:43:48;9.70;99.90
40914;DHT22;26638;50.990;4.676;2024-02-21T03:46:14;9.60;99.90
40914;DHT22;26638;50.990;4.676;2024-02-21T03:48:39;9.60;99.90
40914;DHT22;26638;50.990;4.676;2024-02-21T03:51:05;9.60;99.90
40914;DHT22;26638;50.990;4.676;2024-02-21T03:53:31;9.60;99.90
40914;DHT22;26638;50.990;4.676;2024-02-21T03:55:56;9.70;99.90
40914;DHT22;26638;50.990;4.676;2024-02-21T03:58:25;9.80;99.90
40914;DHT22;26638;50.990;4.676;2024-02-21T04:00:51;9.90;99.90
40914;DHT22;26638;50.990;4.676;2024-02-21T04:03:17;10.00;99.90
40914;DHT22;26638;50.990;4.676;2024-02-21T04:05:43;10.00;99.90
40914;DHT22;26638;50.990;4.676;2024-02-21T04:08:08;10.00;99.90
40914;DHT22;26638;50.990;4.676;2024-02-21T04:10:34;10.10;99.90
40914;DHT22;26638;50.990;4.676;2024-02-21T04:13:00;10.00;99.90
40914;DHT22;26638;50.990;4.676;2024-02-21T04:15:26;10.00;99.90
40914;DHT22;26638;50.990;4.676;2024-02-21T04:17:52;10.00;99.90
40914;DHT22;26638;50.990;4.676;2024-02-21T04:20:18;9.80;99.90
40914;DHT22;26638;50.990;4.676;2024-02-21T04:22:44;9.80;99.90
40914;DHT22;26638;50.990;4.676;2024-02-21T04:25:10;9.70;99.90
40914;DHT22;26638;50.990;4.676;2024-02-21T04:27:37;9.70;99.90
40914;DHT22;26638;50.990;4.676;2024-02-21T04:30:03;9.70;99.90
40914;DHT22;26638;50.990;4.676;2024-02-21T04:32:29;9.70;99.90
40914;DHT22;26638;50.990;4.676;2024-02-21T04:34:55;9.70;99.90
40914;DHT22;26638;50.990;4.676;2024-02-21T04:37:21;9.70;99.90
40914;DHT22;26638;50.990;4.676;2024-02-21T04:39:48;9.70;99.90
40914;DHT22;26638;50.990;4.676;2024-02-21T04:42:14;9.70;99.90
40914;DHT22;26638;50.990;4.676;2024-02-21T04:44:40;9.70;99.90
40914;DHT22;26638;50.990;4.676;2024-02-21T04:47:06;9.80;99.90
40914;DHT22;26638;50.990;4.676;2024-02-21T04:49:33;9.70;99.90
40914;DHT22;26638;50.990;4.676;2024-02-21T04:51:59;9.70;99.90
40914;DHT22;26638;50.990;4.676;2024-02-21T04:54:25;9.70;99.90
40914;DHT22;26638;50.990;4.676;2024-02-21T04:56:51;9.70;99.90
40914;DHT22;26638;50.990;4.676;2024-02-21T04:59:17;9.50;99.90
40914;DHT22;26638;50.990;4.676;2024-02-21T05:01:43;9.50;99.90
40914;DHT22;26638;50.990;4.676;2024-02-21T05:04:08;9.40;99.90
40914;DHT22;26638;50.990;4.676;2024-02-21T05:06:41;9.40;99.90
40914;DHT22;26638;50.990;4.676;2024-02-21T05:09:07;9.40;99.90
40914;DHT22;26638;50.990;4.676;2024-02-21T05:11:36;9.40;99.90
40914;DHT22;26638;50.990;4.676;2024-02-21T05:14:03;9.40;99.90
40914;DHT22;26638;50.990;4.676;2024-02-21T05:16:30;9.50;99.90
40914;DHT22;26638;50.990;4.676;2024-02-21T05:18:55;9.50;99.90
40914;DHT22;26638;50.990;4.676;2024-02-21T05:21:25;9.50;99.90
40914;DHT22;26638;50.990;4.676;2024-02-21T05:23:52;9.50;99.90
40914;DHT22;26638;50.990;4.676;2024-02-21T05:26:25;9.40;99.90
40914;DHT22;26638;50.990;4.676;2024-02-21T05:28:51;9.40;99.90
40914;DHT22;26638;50.990;4.676;2024-02-21T05:31:17;9.50;99.90
40914;DHT22;26638;50.990;4.676;2024-02-21T05:33:44;9.50;99.90
40914;DHT22;26638;50.990;4.676;2024-02-21T05:36:10;9.60;99.90
40914;DHT22;26638;50.990;4.676;2024-02-21T05:38:36;9.60;99.90
40914;DHT22;26638;50.990;4.676;2024-02-21T05:41:02;9.70;99.90
40914;DHT22;26638;50.990;4.676;2024-02-21T05:43:28;9.60;99.90
40914;DHT22;26638;50.990;4.676;2024-02-21T05:45:53;9.60;99.90
40914;DHT22;26638;50.990;4.676;2024-02-21T05:48:20;9.60;99.90
40914;DHT22;26638;50.990;4.676;2024-02-21T05:50:46;9.60;99.90
40914;DHT22;26638;50.990;4.676;2024-02-21T05:53:11;9.70;99.90
40914;DHT22;26638;50.990;4.676;2024-02-21T05:55:39;9.70;99.90
40914;DHT22;26638;50.990;4.676;2024-02-21T05:58:05;9.70;99.90
40914;DHT22;26638;50.990;4.676;2024-02-21T06:00:32;9.70;99.90
40914;DHT22;26638;50.990;4.676;2024-02-21T06:02:58;9.70;99.90
40914;DHT22;26638;50.990;4.676;2024-02-21T06:05:23;9.70;99.90
40914;DHT22;26638;50.990;4.676;2024-02-21T06:07:49;9.70;99.90
40914;DHT22;26638;50.990;4.676;2024-02-21T06:10:15;9.80;99.90
40914;DHT22;26638;50.990;4.676;2024-02-21T06:12:41;10.40;99.90
40914;DHT22;26638;50.990;4.676;2024-02-21T06:15:07;9.90;99.90
40914;DHT22;26638;50.990;4.676;2024-02-21T06:17:32;9.90;99.90
40914;DHT22;26638;50.990;4.676;2024-02-21T06:19:58;10.10;99.90
40914;DHT22;26638;50.990;4.676;2024-02-21T06:22:24;10.10;99.90
40914;DHT22;26638;50.990;4.676;2024-02-21T06:24:49;10.10;99.90
40914;DHT22;26638;50.990;4.676;2024-02-21T06:27:16;10.20;99.90
40914;DHT22;26638;50.990;4.676;2024-02-21T06:29:42;10.00;99.90
40914;DHT22;26638;50.990;4.676;2024-02-21T06:32:08;10.00;99.90
40914;DHT22;26638;50.990;4.676;2024-02-21T06:34:34;10.00;99.90
40914;DHT22;26638;50.990;4.676;2024-02-21T06:36:59;10.00;99.90
40914;DHT22;26638;50.990;4.676;2024-02-21T06:39:25;10.00;99.90
40914;DHT22;26638;50.990;4.676;2024-02-21T06:41:51;10.00;99.90
40914;DHT22;26638;50.990;4.676;2024-02-21T06:44:18;11.00;99.90
40914;DHT22;26638;50.990;4.676;2024-02-21T06:46:43;9.90;99.90
40914;DHT22;26638;50.990;4.676;2024-02-21T06:49:09;9.80;99.90
40914;DHT22;26638;50.990;4.676;2024-02-21T06:51:43;9.70;99.90
40914;DHT22;26638;50.990;4.676;2024-02-21T06:54:09;9.70;99.90
40914;DHT22;26638;50.990;4.676;2024-02-21T06:56:36;9.60;99.90
40914;DHT22;26638;50.990;4.676;2024-02-21T06:59:03;9.70;99.90
40914;DHT22;26638;50.990;4.676;2024-02-21T07:01:32;9.70;99.90
40914;DHT22;26638;50.990;4.676;2024-02-21T07:03:58;9.70;99.90
40914;DHT22;26638;50.990;4.676;2024-02-21T07:06:23;9.70;99.90
40914;DHT22;26638;50.990;4.676;2024-02-21T07:08:49;9.80;99.90
40914;DHT22;26638;50.990;4.676;2024-02-21T07:11:15;9.80;99.90
40914;DHT22;26638;50.990;4.676;2024-02-21T07:13:41;9.80;99.90
40914;DHT22;26638;50.990;4.676;2024-02-21T07:16:07;9.80;99.90
40914;DHT22;26638;50.990;4.676;2024-02-21T07:18:33;9.80;99.90
40914;DHT22;26638;50.990;4.676;2024-02-21T07:20:59;9.80;99.90
40914;DHT22;26638;50.990;4.676;2024-02-21T07:23:25;9.80;99.90
40914;DHT22;26638;50.990;4.676;2024-02-21T07:25:50;9.80;99.90
40914;DHT22;26638;50.990;4.676;2024-02-21T07:28:16;9.70;99.90
40914;DHT22;26638;50.990;4.676;2024-02-21T07:30:42;9.80;99.90
40914;DHT22;26638;50.990;4.676;2024-02-21T07:33:08;9.70;99.90
40914;DHT22;26638;50.990;4.676;2024-02-21T07:35:34;9.60;99.90
40914;DHT22;26638;50.990;4.676;2024-02-21T07:38:05;9.60;99.90
40914;DHT22;26638;50.990;4.676;2024-02-21T07:40:31;9.60;99.90
40914;DHT22;26638;50.990;4.676;2024-02-21T07:42:57;9.70;99.90
40914;DHT22;26638;50.990;4.676;2024-02-21T07:45:23;9.70;99.90
40914;DHT22;26638;50.990;4.676;2024-02-21T07:47:49;9.70;99.90
40914;DHT22;26638;50.990;4.676;2024-02-21T07:50:15;9.60;99.90
40914;DHT22;26638;50.990;4.676;2024-02-21T07:52:41;9.50;99.90
40914;DHT22;26638;50.990;4.676;2024-02-21T07:55:08;9.50;99.90
40914;DHT22;26638;50.990;4.676;2024-02-21T07:57:35;9.60;99.90
40914;DHT22;26638;50.990;4.676;2024-02-21T08:00:01;9.60;99.90
40914;DHT22;26638;50.990;4.676;2024-02-21T08:02:27;9.60;99.90
40914;DHT22;26638;50.990;4.676;2024-02-21T08:04:53;9.50;99.90
40914;DHT22;26638;50.990;4.676;2024-02-21T08:07:18;9.40;99.90
40914;DHT22;26638;50.990;4.676;2024-02-21T08:09:44;9.50;99.90
40914;DHT22;26638;50.990;4.676;2024-02-21T08:12:10;9.50;99.90
40914;DHT22;26638;50.990;4.676;2024-02-21T08:14:35;9.60;99.90
40914;DHT22;26638;50.990;4.676;2024-02-21T08:17:01;9.60;99.90
40914;DHT22;26638;50.990;4.676;2024-02-21T08:19:27;9.60;99.90
40914;DHT22;26638;50.990;4.676;2024-02-21T08:21:52;9.70;99.90
40914;DHT22;26638;50.990;4.676;2024-02-21T08:24:18;9.80;99.90
40914;DHT22;26638;50.990;4.676;2024-02-21T08:26:44;10.10;99.90
40914;DHT22;26638;50.990;4.676;2024-02-21T08:29:13;9.70;99.90
40914;DHT22;26638;50.990;4.676;2024-02-21T08:31:38;9.80;99.90
40914;DHT22;26638;50.990;4.676;2024-02-21T08:34:04;9.80;99.90
40914;DHT22;26638;50.990;4.676;2024-02-21T08:36:34;9.80;99.90
40914;DHT22;26638;50.990;4.676;2024-02-21T08:39:01;9.80;99.90
40914;DHT22;26638;50.990;4.676;2024-02-21T08:41:30;9.80;99.90
40914;DHT22;26638;50.990;4.676;2024-02-21T08:43:55;9.90;99.90
40914;DHT22;26638;50.990;4.676;2024-02-21T08:46:21;9.90;99.90
40914;DHT22;26638;50.990;4.676;2024-02-21T08:48:47;9.80;99.90
40914;DHT22;26638;50.990;4.676;2024-02-21T08:51:13;9.80;99.90
40914;DHT22;26638;50.990;4.676;2024-02-21T08:53:39;9.80;99.90
40914;DHT22;26638;50.990;4.676;2024-02-21T08:56:05;9.90;99.90
40914;DHT22;26638;50.990;4.676;2024-02-21T08:58:30;10.00;99.90
40914;DHT22;26638;50.990;4.676;2024-02-21T09:00:56;10.00;99.90
40914;DHT22;26638;50.990;4.676;2024-02-21T09:03:22;10.00;99.90
40914;DHT22;26638;50.990;4.676;2024-02-21T09:05:47;10.00;99.90
40914;DHT22;26638;50.990;4.676;2024-02-21T09:08:13;10.20;99.90
40914;DHT22;26638;50.990;4.676;2024-02-21T09:10:42;10.10;99.90
40914;DHT22;26638;50.990;4.676;2024-02-21T09:13:08;10.10;99.90
40914;DHT22;26638;50.990;4.676;2024-02-21T09:15:34;10.10;99.90
40914;DHT22;26638;50.990;4.676;2024-02-21T09:17:59;10.10;99.90
40914;DHT22;26638;50.990;4.676;2024-02-21T09:20:25;10.10;99.90
40914;DHT22;26638;50.990;4.676;2024-02-21T09:22:51;10.20;99.90
40914;DHT22;26638;50.990;4.676;2024-02-21T09:25:18;10.30;99.90
40914;DHT22;26638;50.990;4.676;2024-02-21T09:27:45;10.50;99.90
40914;DHT22;26638;50.990;4.676;2024-02-21T09:30:10;10.60;99.90
40914;DHT22;26638;50.990;4.676;2024-02-21T09:32:37;10.60;99.90
40914;DHT22;26638;50.990;4.676;2024-02-21T09:35:03;10.50;99.90
40914;DHT22;26638;50.990;4.676;2024-02-21T09:37:29;10.70;99.90
40914;DHT22;26638;50.990;4.676;2024-02-21T09:39:54;10.80;99.90
40914;DHT22;26638;50.990;4.676;2024-02-21T09:42:20;10.70;99.90
40914;DHT22;26638;50.990;4.676;2024-02-21T09:44:47;10.70;99.90
40914;DHT22;26638;50.990;4.676;2024-02-21T09:47:16;10.70;99.90
40914;DHT22;26638;50.990;4.676;2024-02-21T09:49:43;10.70;99.90
40914;DHT22;26638;50.990;4.676;2024-02-21T09:52:09;10.70;99.90
40914;DHT22;26638;50.990;4.676;2024-02-21T09:54:35;10.70;99.90
40914;DHT22;26638;50.990;4.676;2024-02-21T09:57:01;10.60;99.90
40914;DHT22;26638;50.990;4.676;2024-02-21T09:59:33;10.80;99.90
40914;DHT22;26638;50.990;4.676;2024-02-21T10:01:59;10.90;99.90
40914;DHT22;26638;50.990;4.676;2024-02-21T10:04:26;11.00;99.90
40914;DHT22;26638;50.990;4.676;2024-02-21T10:06:52;11.10;99.90
40914;DHT22;26638;50.990;4.676;2024-02-21T10:09:25;11.10;99.90
40914;DHT22;26638;50.990;4.676;2024-02-21T10:11:53;10.90;99.90
40914;DHT22;26638;50.990;4.676;2024-02-21T10:14:19;10.90;99.90
40914;DHT22;26638;50.990;4.676;2024-02-21T10:16:55;10.80;99.90
40914;DHT22;26638;50.990;4.676;2024-02-21T10:19:21;10.90;99.90
40914;DHT22;26638;50.990;4.676;2024-02-21T10:22:04;10.90;99.90
40914;DHT22;26638;50.990;4.676;2024-02-21T10:24:30;11.00;99.90
40914;DHT22;26638;50.990;4.676;2024-02-21T10:27:04;11.00;99.90
40914;DHT22;26638;50.990;4.676;2024-02-21T10:29:30;11.10;99.90
40914;DHT22;26638;50.990;4.676;2024-02-21T10:34:35;11.30;99.90
40914;DHT22;26638;50.990;4.676;2024-02-21T10:37:01;11.30;99.90
40914;DHT22;26638;50.990;4.676;2024-02-21T10:39:27;11.50;99.90
40914;DHT22;26638;50.990;4.676;2024-02-21T10:41:53;11.50;99.90
40914;DHT22;26638;50.990;4.676;2024-02-21T10:44:20;11.50;99.90
40914;DHT22;26638;50.990;4.676;2024-02-21T10:46:46;11.70;99.90
40914;DHT22;26638;50.990;4.676;2024-02-21T10:49:46;11.90;99.90
40914;DHT22;26638;50.990;4.676;2024-02-21T10:54:55;12.10;99.90
40914;DHT22;26638;50.990;4.676;2024-02-21T10:57:22;12.00;99.90
40914;DHT22;26638;50.990;4.676;2024-02-21T10:59:48;11.70;99.90
40914;DHT22;26638;50.990;4.676;2024-02-21T11:02:14;11.70;99.90
40914;DHT22;26638;50.990;4.676;2024-02-21T11:04:40;11.50;99.90
40914;DHT22;26638;50.990;4.676;2024-02-21T11:07:06;11.70;99.90
40914;DHT22;26638;50.990;4.676;2024-02-21T11:09:32;11.80;99.90
40914;DHT22;26638;50.990;4.676;2024-02-21T11:11:59;11.80;99.90
40914;DHT22;26638;50.990;4.676;2024-02-21T11:14:26;11.90;99.90
40914;DHT22;26638;50.990;4.676;2024-02-21T11:16:52;12.00;99.90
40914;DHT22;26638;50.990;4.676;2024-02-21T11:19:27;12.20;99.90
40914;DHT22;26638;50.990;4.676;2024-02-21T11:21:53;12.10;99.90
40914;DHT22;26638;50.990;4.676;2024-02-21T11:24:29;12.20;99.90
40914;DHT22;26638;50.990;4.676;2024-02-21T11:26:55;12.20;99.90
40914;DHT22;26638;50.990;4.676;2024-02-21T11:29:25;12.60;99.90
40914;DHT22;26638;50.990;4.676;2024-02-21T11:31:51;12.70;99.90
40914;DHT22;26638;50.990;4.676;2024-02-21T11:34:17;12.80;99.90
40914;DHT22;26638;50.990;4.676;2024-02-21T11:36:47;12.60;99.90
40914;DHT22;26638;50.990;4.676;2024-02-21T11:39:17;12.30;99.90
40914;DHT22;26638;50.990;4.676;2024-02-21T11:41:44;12.20;99.90
40914;DHT22;26638;50.990;4.676;2024-02-21T11:44:10;12.30;99.90
40914;DHT22;26638;50.990;4.676;2024-02-21T11:46:36;12.30;99.90
40914;DHT22;26638;50.990;4.676;2024-02-21T11:49:01;12.20;99.90
40914;DHT22;26638;50.990;4.676;2024-02-21T11:51:29;12.10;99.90
40914;DHT22;26638;50.990;4.676;2024-02-21T11:53:54;12.30;99.90
40914;DHT22;26638;50.990;4.676;2024-02-21T11:56:20;12.00;99.90
40914;DHT22;26638;50.990;4.676;2024-02-21T11:58:46;12.20;99.90
40914;DHT22;26638;50.990;4.676;2024-02-21T12:01:13;12.10;99.90
40914;DHT22;26638;50.990;4.676;2024-02-21T12:03:38;11.80;99.90
40914;DHT22;26638;50.990;4.676;2024-02-21T12:06:07;11.70;99.90
40914;DHT22;26638;50.990;4.676;2024-02-21T12:08:43;11.70;99.90
40914;DHT22;26638;50.990;4.676;2024-02-21T12:11:21;11.80;99.90
40914;DHT22;26638;50.990;4.676;2024-02-21T12:14:03;11.70;99.90
40914;DHT22;26638;50.990;4.676;2024-02-21T12:16:33;11.70;99.90
40914;DHT22;26638;50.990;4.676;2024-02-21T12:19:00;11.60;99.90
40914;DHT22;26638;50.990;4.676;2024-02-21T12:21:27;11.90;99.90
40914;DHT22;26638;50.990;4.676;2024-02-21T12:23:54;11.90;99.90
40914;DHT22;26638;50.990;4.676;2024-02-21T12:26:20;11.90;99.90
40914;DHT22;26638;50.990;4.676;2024-02-21T12:28:46;11.70;99.90
40914;DHT22;26638;50.990;4.676;2024-02-21T12:31:15;11.50;99.90
40914;DHT22;26638;50.990;4.676;2024-02-21T12:33:45;11.50;99.90
40914;DHT22;26638;50.990;4.676;2024-02-21T12:36:10;11.40;99.90
40914;DHT22;26638;50.990;4.676;2024-02-21T12:38:37;11.50;99.90
40914;DHT22;26638;50.990;4.676;2024-02-21T12:41:02;11.50;99.90
40914;DHT22;26638;50.990;4.676;2024-02-21T12:43:28;11.40;99.90
40914;DHT22;26638;50.990;4.676;2024-02-21T12:45:54;11.30;99.90
40914;DHT22;26638;50.990;4.676;2024-02-21T12:48:19;11.50;99.90
40914;DHT22;26638;50.990;4.676;2024-02-21T12:50:49;11.60;99.90
40914;DHT22;26638;50.990;4.676;2024-02-21T12:53:19;11.80;99.90
40914;DHT22;26638;50.990;4.676;2024-02-21T12:55:47;11.70;99.90
40914;DHT22;26638;50.990;4.676;2024-02-21T12:58:14;11.50;99.90
40914;DHT22;26638;50.990;4.676;2024-02-21T13:00:40;11.50;99.90
40914;DHT22;26638;50.990;4.676;2024-02-21T13:03:05;11.50;99.90
40914;DHT22;26638;50.990;4.676;2024-02-21T13:05:31;11.40;99.90
40914;DHT22;26638;50.990;4.676;2024-02-21T13:07:58;11.30;99.90
40914;DHT22;26638;50.990;4.676;2024-02-21T13:10:24;11.30;99.90
40914;DHT22;26638;50.990;4.676;2024-02-21T13:12:49;11.40;99.90
40914;DHT22;26638;50.990;4.676;2024-02-21T13:15:15;11.40;99.90
40914;DHT22;26638;50.990;4.676;2024-02-21T13:17:46;11.40;99.90
40914;DHT22;26638;50.990;4.676;2024-02-21T13:20:13;11.50;99.90
40914;DHT22;26638;50.990;4.676;2024-02-21T13:22:38;11.60;99.90
40914;DHT22;26638;50.990;4.676;2024-02-21T13:25:05;11.50;99.90
40914;DHT22;26638;50.990;4.676;2024-02-21T13:27:33;11.70;99.90
40914;DHT22;26638;50.990;4.676;2024-02-21T13:29:59;11.80;99.90
40914;DHT22;26638;50.990;4.676;2024-02-21T13:32:26;11.80;99.90
40914;DHT22;26638;50.990;4.676;2024-02-21T13:34:52;11.60;99.90
40914;DHT22;26638;50.990;4.676;2024-02-21T13:37:18;11.60;99.90
40914;DHT22;26638;50.990;4.676;2024-02-21T13:39:44;11.50;99.90
40914;DHT22;26638;50.990;4.676;2024-02-21T13:42:10;11.50;99.90
40914;DHT22;26638;50.990;4.676;2024-02-21T13:44:35;11.70;99.90
40914;DHT22;26638;50.990;4.676;2024-02-21T13:47:02;11.60;99.90
40914;DHT22;26638;50.990;4.676;2024-02-21T13:49:28;11.50;99.90
40914;DHT22;26638;50.990;4.676;2024-02-21T13:51:55;11.60;99.90
40914;DHT22;26638;50.990;4.676;2024-02-21T13:54:21;11.40;99.90
40914;DHT22;26638;50.990;4.676;2024-02-21T13:56:47;11.40;99.90
40914;DHT22;26638;50.990;4.676;2024-02-21T13:59:12;11.30;99.90
40914;DHT22;26638;50.990;4.676;2024-02-21T14:01:41;11.10;99.90
40914;DHT22;26638;50.990;4.676;2024-02-21T14:04:07;11.00;99.90
40914;DHT22;26638;50.990;4.676;2024-02-21T14:06:32;11.00;99.90
40914;DHT22;26638;50.990;4.676;2024-02-21T14:08:58;11.00;99.90
40914;DHT22;26638;50.990;4.676;2024-02-21T14:11:24;11.10;99.90
40914;DHT22;26638;50.990;4.676;2024-02-21T14:13:49;10.90;99.90
40914;DHT22;26638;50.990;4.676;2024-02-21T14:16:15;10.80;99.90
40914;DHT22;26638;50.990;4.676;2024-02-21T14:18:40;10.80;99.90
40914;DHT22;26638;50.990;4.676;2024-02-21T14:21:07;10.60;99.90
40914;DHT22;26638;50.990;4.676;2024-02-21T14:23:36;10.50;99.90
40914;DHT22;26638;50.990;4.676;2024-02-21T14:26:02;10.40;99.90
40914;DHT22;26638;50.990;4.676;2024-02-21T14:28:28;10.40;99.90
40914;DHT22;26638;50.990;4.676;2024-02-21T14:30:54;10.40;99.90
40914;DHT22;26638;50.990;4.676;2024-02-21T14:33:28;10.40;99.90
40914;DHT22;26638;50.990;4.676;2024-02-21T14:35:55;10.30;99.90
40914;DHT22;26638;50.990;4.676;2024-02-21T14:38:20;10.30;99.90
40914;DHT22;26638;50.990;4.676;2024-02-21T14:40:46;10.30;99.90
40914;DHT22;26638;50.990;4.676;2024-02-21T14:43:11;10.20;99.90
40914;DHT22;26638;50.990;4.676;2024-02-21T14:45:37;10.10;99.90
40914;DHT22;26638;50.990;4.676;2024-02-21T14:48:06;10.10;99.90
40914;DHT22;26638;50.990;4.676;2024-02-21T14:50:32;10.10;99.90
40914;DHT22;26638;50.990;4.676;2024-02-21T14:52:58;10.10;99.90
40914;DHT22;26638;50.990;4.676;2024-02-21T14:55:23;10.10;99.90
40914;DHT22;26638;50.990;4.676;2024-02-21T14:57:49;10.00;99.90
40914;DHT22;26638;50.990;4.676;2024-02-21T15:00:15;9.90;99.90
40914;DHT22;26638;50.990;4.676;2024-02-21T15:02:40;9.90;99.90
40914;DHT22;26638;50.990;4.676;2024-02-21T15:05:06;9.90;99.90
40914;DHT22;26638;50.990;4.676;2024-02-21T15:07:32;9.90;99.90
40914;DHT22;26638;50.990;4.676;2024-02-21T15:09:57;9.80;99.90
40914;DHT22;26638;50.990;4.676;2024-02-21T15:12:23;9.80;99.90
40914;DHT22;26638;50.990;4.676;2024-02-21T15:14:52;9.70;99.90
40914;DHT22;26638;50.990;4.676;2024-02-21T15:17:17;9.70;99.90
40914;DHT22;26638;50.990;4.676;2024-02-21T15:19:46;9.70;99.90
40914;DHT22;26638;50.990;4.676;2024-02-21T15:22:13;9.60;99.90
40914;DHT22;26638;50.990;4.676;2024-02-21T15:24:39;9.60;99.90
40914;DHT22;26638;50.990;4.676;2024-02-21T15:27:04;9.60;99.90
40914;DHT22;26638;50.990;4.676;2024-02-21T15:29:30;9.60;99.90
40914;DHT22;26638;50.990;4.676;2024-02-21T15:31:55;9.60;99.90
40914;DHT22;26638;50.990;4.676;2024-02-21T15:34:21;9.60;99.90
40914;DHT22;26638;50.990;4.676;2024-02-21T15:36:47;9.60;99.90
40914;DHT22;26638;50.990;4.676;2024-02-21T15:39:13;9.50;99.90